Time,TemperatureF,DewpointF,PressureIn,WindDirection,WindDirectionDegrees,WindSpeedMPH,WindSpeedGustMPH,Humidity,HourlyPrecipIn,Conditions,Clouds,dailyrainin,SoftwareType,DateUTC
2013-10-10 00:01:00,54.2,49.0,30.14,NW,320,0.0,0.0,82,0.00,,,0.00,weatherlink.com 1.10,2013-10-10 04:01:00,
2013-10-10 00:02:00,54.2,48.8,30.14,NW,321,0.0,0.0,82,0.00,,,0.00,VWS V14.01,2013-10-10 04:02:00,
2013-10-10 00:03:00,54.2,48.8,30.14,NW,321,0.0,0.0,82,0.00,,,0.00,VWS V14.01,2013-10-10 04:03:00,
2013-10-10 00:04:00,54.2,48.8,30.14,NW,321,0.0,0.0,82,0.00,,,0.00,VWS V14.01,2013-10-10 04:04:00,
2013-10-10 00:09:00,53.9,48.2,30.14,NW,320,0.0,0.0,81,0.00,,,0.00,VWS V14.01,2013-10-10 04:09:00,
2013-10-10 00:14:00,53.5,48.2,30.15,NW,321,0.0,0.0,82,0.00,,,0.00,VWS V14.01,2013-10-10 04:14:00,
2013-10-10 00:19:00,53.1,48.1,30.15,NW,321,0.0,0.0,83,0.00,,,0.00,VWS V14.01,2013-10-10 04:19:00,
2013-10-10 00:23:00,52.8,48.1,30.14,NW,320,0.0,0.0,84,0.00,,,0.00,VWS V14.01,2013-10-10 04:23:00,
2013-10-10 00:28:00,52.5,47.8,30.14,NW,321,0.0,0.0,84,0.00,,,0.00,VWS V14.01,2013-10-10 04:28:00,
2013-10-10 00:30:00,52.8,48.1,30.14,NW,320,0.0,0.0,84,0.00,,,0.00,VWS V14.01,2013-10-10 04:30:00,
2013-10-10 00:33:00,52.1,47.4,30.14,NW,321,0.0,0.0,84,0.00,,,0.00,VWS V14.01,2013-10-10 04:33:00,
2013-10-10 00:38:00,51.6,47.2,30.14,NW,321,0.0,0.0,85,0.00,,,0.00,VWS V14.01,2013-10-10 04:38:00,
2013-10-10 00:43:00,51.0,47.0,30.14,NW,321,0.0,0.0,86,0.00,,,0.00,VWS V14.01,2013-10-10 04:43:00,
2013-10-10 00:48:00,50.5,46.8,30.14,NW,321,0.0,0.0,87,0.00,,,0.00,VWS V14.01,2013-10-10 04:48:00,
2013-10-10 00:53:00,50.3,46.9,30.14,NW,321,0.0,0.0,88,0.00,,,0.00,VWS V14.01,2013-10-10 04:53:00,
2013-10-10 00:58:00,50.0,46.6,30.14,NW,320,0.0,0.0,88,0.00,,,0.00,VWS V14.01,2013-10-10 04:58:00,
2013-10-10 01:00:00,50.2,46.8,30.14,NW,321,0.0,0.0,88,0.00,,,0.00,VWS V14.01,2013-10-10 05:00:00,
2013-10-10 01:03:00,49.9,46.8,30.13,NW,321,0.0,0.0,89,0.00,,,0.00,VWS V14.01,2013-10-10 05:03:00,
2013-10-10 01:08:00,49.7,46.9,30.13,NW,321,0.0,0.0,90,0.00,,,0.00,VWS V14.01,2013-10-10 05:08:00,
2013-10-10 01:13:00,49.3,46.5,30.13,NW,320,0.0,0.0,90,0.00,,,0.00,VWS V14.01,2013-10-10 05:13:00,
2013-10-10 01:18:00,49.2,46.7,30.13,NW,321,0.0,0.0,91,0.00,,,0.00,VWS V14.01,2013-10-10 05:18:00,
2013-10-10 01:23:00,49.0,46.5,30.13,NW,320,0.0,0.0,91,0.00,,,0.00,VWS V14.01,2013-10-10 05:23:00,
2013-10-10 01:28:00,49.1,46.9,30.13,NW,321,0.0,0.0,92,0.00,,,0.00,VWS V14.01,2013-10-10 05:28:00,
2013-10-10 01:30:00,49.0,46.8,30.13,NW,321,0.0,0.0,92,0.00,,,0.00,VWS V14.01,2013-10-10 05:30:00,
2013-10-10 01:33:00,49.1,46.9,30.13,NW,321,0.0,0.0,92,0.00,,,0.00,VWS V14.01,2013-10-10 05:33:00,
2013-10-10 01:38:00,48.9,46.7,30.14,NW,320,0.0,0.0,92,0.00,,,0.00,VWS V14.01,2013-10-10 05:38:00,
2013-10-10 01:43:00,49.2,47.3,30.14,NW,320,0.0,0.0,93,0.00,,,0.00,VWS V14.01,2013-10-10 05:43:00,
2013-10-10 01:48:00,49.7,47.5,30.14,NW,321,0.0,0.0,92,0.00,,,0.00,VWS V14.01,2013-10-10 05:48:00,
2013-10-10 01:53:00,49.7,47.5,30.14,NW,321,0.0,0.0,92,0.00,,,0.00,VWS V14.01,2013-10-10 05:53:00,
2013-10-10 01:58:00,49.4,46.9,30.14,NW,320,0.0,0.0,91,0.00,,,0.00,VWS V14.01,2013-10-10 05:58:00,
2013-10-10 02:00:00,49.6,47.1,30.14,NW,320,0.0,0.0,91,0.00,,,0.00,VWS V14.01,2013-10-10 06:00:00,
2013-10-10 02:03:00,49.2,47.0,30.14,NW,320,0.0,0.0,92,0.00,,,0.00,VWS V14.01,2013-10-10 06:03:00,
2013-10-10 02:08:00,49.0,46.8,30.14,NW,321,0.0,0.0,92,0.00,,,0.00,VWS V14.01,2013-10-10 06:08:00,
2013-10-10 02:13:00,48.8,46.6,30.14,NW,321,0.0,0.0,92,0.00,,,0.00,VWS V14.01,2013-10-10 06:13:00,
2013-10-10 02:18:00,48.7,46.5,30.14,NW,321,0.0,0.0,92,0.00,,,0.00,VWS V14.01,2013-10-10 06:18:00,
2013-10-10 02:23:00,48.5,46.6,30.14,NW,321,0.0,0.0,93,0.00,,,0.00,VWS V14.01,2013-10-10 06:23:00,
2013-10-10 02:28:00,48.4,46.5,30.14,NW,321,0.0,0.0,93,0.00,,,0.00,VWS V14.01,2013-10-10 06:28:00,
2013-10-10 02:30:00,48.5,46.6,30.14,NW,320,0.0,0.0,93,0.00,,,0.00,VWS V14.01,2013-10-10 06:30:00,
2013-10-10 02:33:00,48.2,46.3,30.15,NW,320,0.0,0.0,93,0.00,,,0.00,VWS V14.01,2013-10-10 06:33:00,
2013-10-10 02:38:00,48.3,46.7,30.14,NW,320,0.0,0.0,94,0.00,,,0.00,VWS V14.01,2013-10-10 06:38:00,
2013-10-10 02:43:00,48.4,46.8,30.14,NW,320,0.0,0.0,94,0.00,,,0.00,VWS V14.01,2013-10-10 06:43:00,
2013-10-10 02:48:00,48.4,46.8,30.14,NW,321,0.0,0.0,94,0.00,,,0.00,VWS V14.01,2013-10-10 06:48:00,
2013-10-10 02:53:00,48.3,46.7,30.14,NW,320,0.0,0.0,94,0.00,,,0.00,VWS V14.01,2013-10-10 06:53:00,
2013-10-10 02:58:00,48.5,46.9,30.15,NW,321,0.0,0.0,94,0.00,,,0.00,VWS V14.01,2013-10-10 06:58:00,
2013-10-10 03:00:00,48.3,46.7,30.15,NW,320,0.0,0.0,94,0.00,,,0.00,VWS V14.01,2013-10-10 07:00:00,
2013-10-10 03:03:00,48.5,46.9,30.15,NW,321,0.0,0.0,94,0.00,,,0.00,VWS V14.01,2013-10-10 07:03:00,
2013-10-10 03:08:00,48.5,46.9,30.14,NW,320,0.0,0.0,94,0.00,,,0.00,VWS V14.01,2013-10-10 07:08:00,
2013-10-10 03:13:00,48.5,46.9,30.14,NW,320,0.0,0.0,94,0.00,,,0.00,VWS V14.01,2013-10-10 07:13:00,
2013-10-10 03:18:00,48.3,46.7,30.14,NW,321,0.0,0.0,94,0.00,,,0.00,VWS V14.01,2013-10-10 07:18:00,
2013-10-10 03:23:00,48.2,46.6,30.14,NW,320,0.0,0.0,94,0.00,,,0.00,VWS V14.01,2013-10-10 07:23:00,
2013-10-10 03:28:00,48.1,46.5,30.14,NW,320,0.0,0.0,94,0.00,,,0.00,VWS V14.01,2013-10-10 07:28:00,
2013-10-10 03:30:00,48.1,46.5,30.14,NW,321,0.0,0.0,94,0.00,,,0.00,VWS V14.01,2013-10-10 07:30:00,
2013-10-10 03:33:00,48.1,46.5,30.14,NW,321,0.0,0.0,94,0.00,,,0.00,VWS V14.01,2013-10-10 07:33:00,
2013-10-10 03:38:00,48.1,46.5,30.14,NW,320,0.0,0.0,94,0.00,,,0.00,VWS V14.01,2013-10-10 07:38:00,
2013-10-10 03:43:00,48.3,46.7,30.14,NW,321,0.0,0.0,94,0.00,,,0.00,VWS V14.01,2013-10-10 07:43:00,
2013-10-10 03:48:00,48.3,46.7,30.14,NW,320,0.0,0.0,94,0.00,,,0.00,VWS V14.01,2013-10-10 07:48:00,
2013-10-10 03:53:00,48.3,46.7,30.14,NW,321,0.0,0.0,94,0.00,,,0.00,VWS V14.01,2013-10-10 07:53:00,
2013-10-10 03:58:00,48.3,46.7,30.14,NW,321,0.0,0.0,94,0.00,,,0.00,VWS V14.01,2013-10-10 07:58:00,
2013-10-10 04:00:00,48.3,46.7,30.14,NW,321,0.0,0.0,94,0.00,,,0.00,VWS V14.01,2013-10-10 08:00:00,
2013-10-10 04:03:00,48.2,46.6,30.14,NW,321,0.0,0.0,94,0.00,,,0.00,VWS V14.01,2013-10-10 08:03:00,
2013-10-10 04:08:00,48.0,46.4,30.14,NW,321,0.0,0.0,94,0.00,,,0.00,VWS V14.01,2013-10-10 08:08:00,
2013-10-10 04:13:00,47.8,46.2,30.14,NW,320,0.0,0.0,94,0.00,,,0.00,VWS V14.01,2013-10-10 08:13:00,
2013-10-10 04:18:00,47.7,46.1,30.14,NW,321,0.0,0.0,94,0.00,,,0.00,VWS V14.01,2013-10-10 08:18:00,
2013-10-10 04:23:00,47.5,45.9,30.14,NW,321,0.0,0.0,94,0.00,,,0.00,VWS V14.01,2013-10-10 08:23:00,
2013-10-10 04:28:00,47.3,45.7,30.14,NW,321,0.0,0.0,94,0.00,,,0.00,VWS V14.01,2013-10-10 08:28:00,
2013-10-10 04:30:00,47.5,45.9,30.14,NW,320,0.0,0.0,94,0.00,,,0.00,VWS V14.01,2013-10-10 08:30:00,
2013-10-10 04:33:00,47.2,45.6,30.14,NW,320,0.0,0.0,94,0.00,,,0.00,VWS V14.01,2013-10-10 08:33:00,
2013-10-10 04:38:00,47.2,45.8,30.14,NW,320,0.0,0.0,95,0.00,,,0.00,VWS V14.01,2013-10-10 08:38:00,
2013-10-10 04:43:00,47.1,45.7,30.14,NW,321,0.0,0.0,95,0.00,,,0.00,VWS V14.01,2013-10-10 08:43:00,
2013-10-10 04:48:00,47.0,45.7,30.14,NW,321,0.0,0.0,95,0.00,,,0.00,VWS V14.01,2013-10-10 08:48:00,
2013-10-10 04:53:00,46.9,45.5,30.14,NW,321,0.0,0.0,95,0.00,,,0.00,VWS V14.01,2013-10-10 08:53:00,
2013-10-10 04:58:00,46.9,45.5,30.14,NW,320,0.0,0.0,95,0.00,,,0.00,VWS V14.01,2013-10-10 08:58:00,
2013-10-10 05:00:00,46.9,45.5,30.14,NW,321,0.0,0.0,95,0.00,,,0.00,VWS V14.01,2013-10-10 09:00:00,
2013-10-10 05:05:00,46.8,45.5,30.15,NW,321,0.0,0.0,95,0.00,,,0.00,VWS V14.01,2013-10-10 09:05:00,
2013-10-10 05:10:00,46.7,45.3,30.15,NW,321,0.0,0.0,95,0.00,,,0.00,VWS V14.01,2013-10-10 09:10:00,
2013-10-10 05:16:00,46.6,45.0,30.15,NW,320,0.0,0.0,95,0.00,,,0.00,weatherlink.com 1.10,2013-10-10 09:16:00,
2013-10-10 05:21:00,46.5,45.2,30.15,NW,320,0.0,0.0,95,0.00,,,0.00,VWS V14.01,2013-10-10 09:21:00,
2013-10-10 05:26:00,46.4,45.0,30.16,NW,321,0.0,0.0,95,0.00,,,0.00,VWS V14.01,2013-10-10 09:26:00,
2013-10-10 05:31:00,46.4,45.3,30.15,NW,321,0.0,0.0,96,0.00,,,0.00,VWS V14.01,2013-10-10 09:31:00,
2013-10-10 05:36:00,46.4,45.3,30.16,NW,321,0.0,0.0,96,0.00,,,0.00,VWS V14.01,2013-10-10 09:36:00,
2013-10-10 05:41:00,46.4,45.3,30.16,NW,321,0.0,0.0,96,0.00,,,0.00,VWS V14.01,2013-10-10 09:41:00,
2013-10-10 05:46:00,46.5,45.4,30.15,NW,321,0.0,0.0,96,0.00,,,0.00,VWS V14.01,2013-10-10 09:46:00,
2013-10-10 05:51:00,46.3,45.2,30.15,NW,321,0.0,0.0,96,0.00,,,0.00,VWS V14.01,2013-10-10 09:51:00,
2013-10-10 05:56:00,46.3,45.2,30.15,NW,320,0.0,0.0,96,0.00,,,0.00,VWS V14.01,2013-10-10 09:56:00,
2013-10-10 06:01:00,46.4,45.3,30.16,NW,320,0.0,0.0,96,0.00,,,0.00,VWS V14.01,2013-10-10 10:01:00,
2013-10-10 06:06:00,46.5,45.4,30.15,NW,321,0.0,0.0,96,0.00,,,0.00,VWS V14.01,2013-10-10 10:06:00,
2013-10-10 06:11:00,46.4,45.3,30.16,NW,320,0.0,0.0,96,0.00,,,0.00,VWS V14.01,2013-10-10 10:11:00,
2013-10-10 06:16:00,46.4,45.3,30.16,NW,321,0.0,0.0,96,0.00,,,0.00,VWS V14.01,2013-10-10 10:16:00,
2013-10-10 06:21:00,46.2,45.1,30.16,NW,320,0.0,0.0,96,0.00,,,0.00,VWS V14.01,2013-10-10 10:21:00,
2013-10-10 06:26:00,46.3,45.2,30.15,NW,320,0.0,0.0,96,0.00,,,0.00,VWS V14.01,2013-10-10 10:26:00,
2013-10-10 06:31:00,46.3,45.2,30.16,NW,321,0.0,0.0,96,0.00,,,0.00,VWS V14.01,2013-10-10 10:31:00,
2013-10-10 06:36:00,46.2,45.1,30.16,NW,320,0.0,0.0,96,0.00,,,0.00,VWS V14.01,2013-10-10 10:36:00,
2013-10-10 06:41:00,46.0,44.9,30.16,NW,321,0.0,0.0,96,0.00,,,0.00,VWS V14.01,2013-10-10 10:41:00,
2013-10-10 06:47:00,46.1,45.3,30.16,NW,320,0.0,0.0,97,0.00,,,0.00,VWS V14.01,2013-10-10 10:47:00,
2013-10-10 06:52:00,46.3,45.5,30.16,NW,320,0.0,0.0,97,0.00,,,0.00,VWS V14.01,2013-10-10 10:52:00,
2013-10-10 06:57:00,46.3,45.5,30.16,NW,320,0.0,0.0,97,0.00,,,0.00,VWS V14.01,2013-10-10 10:57:00,
2013-10-10 07:02:00,46.3,45.5,30.16,NW,321,0.0,0.0,97,0.00,,,0.00,VWS V14.01,2013-10-10 11:02:00,
2013-10-10 07:07:00,46.2,45.1,30.16,NW,320,0.0,0.0,96,0.00,,,0.00,VWS V14.01,2013-10-10 11:07:00,
2013-10-10 07:12:00,45.9,45.0,30.16,NW,320,0.0,0.0,96,0.00,,,0.00,weatherlink.com 1.10,2013-10-10 11:12:00,
2013-10-10 07:17:00,46.0,44.9,30.16,NW,320,0.0,0.0,96,0.00,,,0.00,VWS V14.01,2013-10-10 11:17:00,
2013-10-10 07:22:00,45.7,44.6,30.16,NW,321,0.0,0.0,96,0.00,,,0.00,VWS V14.01,2013-10-10 11:22:00,
2013-10-10 07:27:00,45.6,44.5,30.16,NW,320,0.0,0.0,96,0.00,,,0.00,VWS V14.01,2013-10-10 11:27:00,
2013-10-10 07:32:00,45.3,44.2,30.16,NW,320,0.0,0.0,96,0.00,,,0.00,VWS V14.01,2013-10-10 11:32:00,
2013-10-10 07:37:00,45.4,44.3,30.16,NW,321,0.0,0.0,96,0.00,,,0.00,VWS V14.01,2013-10-10 11:37:00,
2013-10-10 07:42:00,45.5,44.7,30.16,NW,320,0.0,0.0,97,0.00,,,0.00,VWS V14.01,2013-10-10 11:42:00,
2013-10-10 07:47:00,45.6,44.8,30.16,NW,321,0.0,0.0,97,0.00,,,0.00,VWS V14.01,2013-10-10 11:47:00,
2013-10-10 07:52:00,45.6,44.8,30.16,NW,321,0.0,0.0,97,0.00,,,0.00,VWS V14.01,2013-10-10 11:52:00,
2013-10-10 07:57:00,45.6,44.8,30.15,NW,321,0.0,0.0,97,0.00,,,0.00,VWS V14.01,2013-10-10 11:57:00,
2013-10-10 08:02:00,45.5,44.7,30.16,NW,320,0.0,0.0,97,0.00,,,0.00,VWS V14.01,2013-10-10 12:02:00,
2013-10-10 08:07:00,45.6,44.8,30.16,NW,320,0.0,0.0,97,0.00,,,0.00,VWS V14.01,2013-10-10 12:07:00,
2013-10-10 08:12:00,45.6,44.8,30.16,NW,321,0.0,0.0,97,0.00,,,0.00,VWS V14.01,2013-10-10 12:12:00,
2013-10-10 08:17:00,45.6,44.8,30.16,NW,321,0.0,0.0,97,0.00,,,0.00,VWS V14.01,2013-10-10 12:17:00,
2013-10-10 08:22:00,45.6,44.8,30.16,NW,320,0.0,0.0,97,0.00,,,0.00,VWS V14.01,2013-10-10 12:22:00,
2013-10-10 08:27:00,45.7,44.9,30.16,NW,321,0.0,0.0,97,0.00,,,0.00,VWS V14.01,2013-10-10 12:27:00,
2013-10-10 08:32:00,45.8,45.0,30.16,NW,320,0.0,0.0,97,0.00,,,0.00,VWS V14.01,2013-10-10 12:32:00,
2013-10-10 08:37:00,45.9,45.1,30.16,NW,321,0.0,0.0,97,0.00,,,0.00,VWS V14.01,2013-10-10 12:37:00,
2013-10-10 08:42:00,46.0,45.2,30.16,NW,321,0.0,0.0,97,0.00,,,0.00,VWS V14.01,2013-10-10 12:42:00,
2013-10-10 08:47:00,46.7,45.9,30.16,NW,320,0.0,0.0,97,0.00,,,0.00,VWS V14.01,2013-10-10 12:47:00,
2013-10-10 08:52:00,47.0,46.5,30.16,NW,320,0.0,0.0,98,0.00,,,0.00,VWS V14.01,2013-10-10 12:52:00,
2013-10-10 08:57:00,47.8,47.3,30.16,SE,140,0.0,1.0,98,0.00,,,0.00,VWS V14.01,2013-10-10 12:57:00,
2013-10-10 09:02:00,48.3,47.8,30.16,SE,145,0.0,1.0,98,0.00,,,0.00,VWS V14.01,2013-10-10 13:02:00,
2013-10-10 09:07:00,48.8,48.0,30.16,SE,145,0.0,1.0,97,0.00,,,0.00,VWS V14.01,2013-10-10 13:07:00,
2013-10-10 09:12:00,49.5,48.4,30.16,SE,145,0.0,1.0,96,0.00,,,0.00,VWS V14.01,2013-10-10 13:12:00,
2013-10-10 09:17:00,50.2,48.5,30.17,SSE,168,1.0,2.0,94,0.00,,,0.00,VWS V14.01,2013-10-10 13:17:00,
2013-10-10 09:22:00,51.1,48.6,30.17,SSE,159,1.0,2.0,91,0.00,,,0.00,VWS V14.01,2013-10-10 13:22:00,
2013-10-10 09:27:00,51.9,48.8,30.17,SSE,152,0.0,1.0,89,0.00,,,0.00,VWS V14.01,2013-10-10 13:27:00,
2013-10-10 09:32:00,52.7,49.2,30.16,SSE,156,0.0,2.0,88,0.00,,,0.00,VWS V14.01,2013-10-10 13:32:00,
2013-10-10 09:37:00,54.1,49.7,30.17,SE,142,0.0,2.0,85,0.00,,,0.00,VWS V14.01,2013-10-10 13:37:00,
2013-10-10 09:42:00,55.4,50.0,30.17,SE,134,0.0,2.0,82,0.00,,,0.00,VWS V14.01,2013-10-10 13:42:00,
2013-10-10 09:47:00,56.5,50.4,30.17,SE,145,0.0,2.0,80,0.00,,,0.00,VWS V14.01,2013-10-10 13:47:00,
2013-10-10 09:52:00,57.5,50.4,30.17,SE,134,0.0,2.0,77,0.00,,,0.00,VWS V14.01,2013-10-10 13:52:00,
2013-10-10 09:57:00,58.2,50.0,30.17,SE,136,3.0,3.0,74,0.00,,,0.00,VWS V14.01,2013-10-10 13:57:00,
2013-10-10 10:02:00,58.5,50.2,30.17,ESE,113,2.0,3.0,74,0.00,,,0.00,VWS V14.01,2013-10-10 14:02:00,
2013-10-10 10:07:00,59.1,50.5,30.17,SE,132,0.0,3.0,73,0.00,,,0.00,VWS V14.01,2013-10-10 14:07:00,
2013-10-10 10:12:00,59.7,51.0,30.17,SSE,152,0.0,3.0,73,0.00,,,0.00,VWS V14.01,2013-10-10 14:12:00,
2013-10-10 10:17:00,60.4,51.7,30.17,SSE,150,0.0,3.0,73,0.00,,,0.00,VWS V14.01,2013-10-10 14:17:00,
2013-10-10 10:22:00,61.0,51.5,30.18,West,276,0.0,3.0,71,0.00,,,0.00,VWS V14.01,2013-10-10 14:22:00,
2013-10-10 10:27:00,61.2,52.1,30.18,WSW,256,0.0,0.0,72,0.00,,,0.00,VWS V14.01,2013-10-10 14:27:00,
2013-10-10 10:32:00,61.7,52.2,30.18,WSW,258,0.0,0.0,71,0.00,,,0.00,VWS V14.01,2013-10-10 14:32:00,
2013-10-10 10:37:00,62.5,52.6,30.17,SE,131,0.0,1.0,70,0.00,,,0.00,VWS V14.01,2013-10-10 14:37:00,
2013-10-10 10:42:00,63.5,52.8,30.17,SSW,194,0.0,1.0,68,0.00,,,0.00,VWS V14.01,2013-10-10 14:42:00,
2013-10-10 10:47:00,64.4,53.2,30.17,SE,131,1.0,2.0,67,0.00,,,0.00,VWS V14.01,2013-10-10 14:47:00,
2013-10-10 10:52:00,65.0,52.5,30.17,NE,53,1.0,2.0,64,0.00,,,0.00,VWS V14.01,2013-10-10 14:52:00,
2013-10-10 10:57:00,65.2,52.3,30.17,ESE,121,2.0,3.0,63,0.00,,,0.00,VWS V14.01,2013-10-10 14:57:00,
2013-10-10 11:02:00,65.4,52.5,30.17,SE,128,0.0,3.0,63,0.00,,,0.00,VWS V14.01,2013-10-10 15:02:00,
2013-10-10 11:07:00,66.0,53.1,30.17,SE,129,0.0,3.0,63,0.00,,,0.00,VWS V14.01,2013-10-10 15:07:00,
2013-10-10 11:12:00,66.7,53.3,30.17,West,260,1.0,3.0,62,0.00,,,0.00,VWS V14.01,2013-10-10 15:12:00,
2013-10-10 11:17:00,66.9,54.3,30.17,SSE,150,0.0,3.0,64,0.00,,,0.00,VWS V14.01,2013-10-10 15:17:00,
2013-10-10 11:22:00,67.2,53.8,30.17,SSE,150,0.0,3.0,62,0.00,,,0.00,VWS V14.01,2013-10-10 15:22:00,
2013-10-10 11:27:00,67.7,53.3,30.17,West,274,1.0,1.0,60,0.00,,,0.00,VWS V14.01,2013-10-10 15:27:00,
2013-10-10 11:32:00,68.2,52.9,30.17,South,187,2.0,3.0,58,0.00,,,0.00,VWS V14.01,2013-10-10 15:32:00,
2013-10-10 11:37:00,68.7,53.3,30.17,SE,128,0.0,3.0,58,0.00,,,0.00,VWS V14.01,2013-10-10 15:37:00,
2013-10-10 11:42:00,69.2,53.8,30.16,SSE,162,2.0,3.0,58,0.00,,,0.00,VWS V14.01,2013-10-10 15:42:00,
2013-10-10 11:47:00,69.7,52.8,30.16,SE,140,1.0,3.0,55,0.00,,,0.00,VWS V14.01,2013-10-10 15:47:00,
2013-10-10 11:52:00,69.8,51.4,30.17,SSE,153,3.0,4.0,52,0.00,,,0.00,VWS V14.01,2013-10-10 15:52:00,
2013-10-10 11:57:00,69.7,51.3,30.17,SE,138,1.0,2.0,52,0.00,,,0.00,VWS V14.01,2013-10-10 15:57:00,
2013-10-10 12:02:00,70.1,52.2,30.17,WSW,255,1.0,3.0,53,0.00,,,0.00,VWS V14.01,2013-10-10 16:02:00,
2013-10-10 12:07:00,70.2,50.2,30.17,SSE,162,0.0,3.0,49,0.00,,,0.00,VWS V14.01,2013-10-10 16:07:00,
2013-10-10 12:12:00,70.9,51.9,30.17,South,179,2.0,4.0,51,0.00,,,0.00,VWS V14.01,2013-10-10 16:12:00,
2013-10-10 12:17:00,71.6,51.5,30.17,SE,139,0.0,4.0,49,0.00,,,0.00,VWS V14.01,2013-10-10 16:17:00,
2013-10-10 12:22:00,71.6,50.3,30.17,SSE,150,0.0,4.0,47,0.00,,,0.00,VWS V14.01,2013-10-10 16:22:00,
2013-10-10 12:27:00,71.6,50.3,30.17,SW,215,1.0,4.0,47,0.00,,,0.00,VWS V14.01,2013-10-10 16:27:00,
2013-10-10 12:32:00,72.0,51.3,30.17,SSE,165,1.0,4.0,48,0.00,,,0.00,VWS V14.01,2013-10-10 16:32:00,
2013-10-10 12:37:00,72.2,50.9,30.16,WSW,250,0.0,4.0,47,0.00,,,0.00,VWS V14.01,2013-10-10 16:37:00,
2013-10-10 12:42:00,71.8,50.5,30.16,ESE,120,2.0,4.0,47,0.00,,,0.00,VWS V14.01,2013-10-10 16:42:00,
2013-10-10 12:47:00,71.7,51.5,30.16,SSW,210,0.0,4.0,49,0.00,,,0.00,VWS V14.01,2013-10-10 16:47:00,
2013-10-10 12:52:00,72.4,51.0,30.16,NNE,27,2.0,4.0,47,0.00,,,0.00,VWS V14.01,2013-10-10 16:52:00,
2013-10-10 12:57:00,72.4,52.7,30.15,NE,40,0.0,2.0,50,0.00,,,0.00,VWS V14.01,2013-10-10 16:57:00,
2013-10-10 13:02:00,72.0,50.1,30.15,NW,322,2.0,5.0,46,0.00,,,0.00,VWS V14.01,2013-10-10 17:02:00,
2013-10-10 13:07:00,71.9,50.0,30.15,SE,145,1.0,5.0,46,0.00,,,0.00,VWS V14.01,2013-10-10 17:07:00,
2013-10-10 13:12:00,72.4,50.5,30.15,West,259,0.0,5.0,46,0.00,,,0.00,VWS V14.01,2013-10-10 17:12:00,
2013-10-10 13:17:00,72.6,51.2,30.15,SSE,166,2.0,5.0,47,0.00,,,0.00,VWS V14.01,2013-10-10 17:17:00,
2013-10-10 13:22:00,72.6,50.1,30.15,North,357,0.0,5.0,45,0.00,,,0.00,VWS V14.01,2013-10-10 17:22:00,
2013-10-10 13:27:00,72.4,51.0,30.14,NNE,15,1.0,2.0,47,0.00,,,0.00,VWS V14.01,2013-10-10 17:27:00,
2013-10-10 13:32:00,72.5,51.2,30.14,SE,125,1.0,5.0,47,0.00,,,0.00,VWS V14.01,2013-10-10 17:32:00,
2013-10-10 13:37:00,73.3,49.5,30.14,SSE,150,2.0,8.0,43,0.00,,,0.00,VWS V14.01,2013-10-10 17:37:00,
2013-10-10 13:42:00,73.0,49.2,30.14,SSW,204,3.0,8.0,43,0.00,,,0.00,VWS V14.01,2013-10-10 17:42:00,
2013-10-10 13:47:00,73.1,50.5,30.13,SW,218,1.0,8.0,45,0.00,,,0.00,VWS V14.01,2013-10-10 17:47:00,
2013-10-10 13:52:00,73.7,49.8,30.13,ENE,75,3.0,8.0,43,0.00,,,0.00,VWS V14.01,2013-10-10 17:52:00,
2013-10-10 13:57:00,73.5,50.9,30.13,North,10,3.0,4.0,45,0.00,,,0.00,VWS V14.01,2013-10-10 17:57:00,
2013-10-10 14:02:00,73.6,51.0,30.13,NNE,31,0.0,4.0,45,0.00,,,0.00,VWS V14.01,2013-10-10 18:02:00,
2013-10-10 14:07:00,74.0,50.1,30.13,SW,219,1.0,4.0,43,0.00,,,0.00,VWS V14.01,2013-10-10 18:07:00,
2013-10-10 14:12:00,74.2,51.5,30.13,SSW,203,0.0,4.0,45,0.00,,,0.00,VWS V14.01,2013-10-10 18:12:00,
2013-10-10 14:17:00,74.1,51.4,30.12,WNW,284,0.0,4.0,45,0.00,,,0.00,VWS V14.01,2013-10-10 18:17:00,
2013-10-10 14:22:00,73.9,50.6,30.12,NW,316,0.0,4.0,44,0.00,,,0.00,VWS V14.01,2013-10-10 18:22:00,
2013-10-10 14:27:00,74.1,51.4,30.12,North,354,2.0,2.0,45,0.00,,,0.00,VWS V14.01,2013-10-10 18:27:00,
2013-10-10 14:32:00,74.2,50.3,30.12,NNW,327,1.0,2.0,43,0.00,,,0.00,VWS V14.01,2013-10-10 18:32:00,
2013-10-10 14:37:00,74.3,50.4,30.12,NW,305,0.0,2.0,43,0.00,,,0.00,VWS V14.01,2013-10-10 18:37:00,
2013-10-10 14:42:00,74.2,50.9,30.11,NNE,33,1.0,2.0,44,0.00,,,0.00,VWS V14.01,2013-10-10 18:42:00,
2013-10-10 14:47:00,74.5,49.9,30.11,SW,218,2.0,3.0,42,0.00,,,0.00,VWS V14.01,2013-10-10 18:47:00,
2013-10-10 14:52:00,75.4,49.4,30.11,SW,231,0.0,0.0,40,0.00,,,0.00,VWS V14.01,2013-10-10 18:52:00,
2013-10-10 14:57:00,75.4,49.4,30.11,South,186,3.0,5.0,40,0.00,,,0.00,VWS V14.01,2013-10-10 18:57:00,
2013-10-10 15:02:00,75.3,51.3,30.10,WNW,293,1.0,5.0,43,0.00,,,0.00,VWS V14.01,2013-10-10 19:02:00,
2013-10-10 15:07:00,74.2,50.3,30.10,NW,314,0.0,5.0,43,0.00,,,0.00,VWS V14.01,2013-10-10 19:07:00,
2013-10-10 15:12:00,74.3,51.0,30.10,NNE,18,1.0,5.0,44,0.00,,,0.00,VWS V14.01,2013-10-10 19:12:00,
2013-10-10 15:17:00,74.1,49.6,30.10,West,280,1.0,5.0,42,0.00,,,0.00,VWS V14.01,2013-10-10 19:17:00,
2013-10-10 15:22:00,74.2,50.3,30.10,West,276,1.0,5.0,43,0.00,,,0.00,VWS V14.01,2013-10-10 19:22:00,
2013-10-10 15:27:00,74.9,50.3,30.09,SSE,160,1.0,2.0,42,0.00,,,0.00,VWS V14.01,2013-10-10 19:27:00,
2013-10-10 15:32:00,75.3,50.0,30.09,SE,142,1.0,4.0,41,0.00,,,0.00,VWS V14.01,2013-10-10 19:32:00,
2013-10-10 15:37:00,75.5,49.5,30.09,SSW,211,3.0,4.0,40,0.00,,,0.00,VWS V14.01,2013-10-10 19:37:00,
2013-10-10 15:42:00,75.6,49.6,30.09,NE,56,0.0,4.0,40,0.00,,,0.00,VWS V14.01,2013-10-10 19:42:00,
2013-10-10 15:47:00,75.0,49.1,30.09,NNW,343,0.0,4.0,40,0.00,,,0.00,VWS V14.01,2013-10-10 19:47:00,
2013-10-10 15:52:00,75.0,49.1,30.09,SE,131,2.0,4.0,40,0.00,,,0.00,VWS V14.01,2013-10-10 19:52:00,
2013-10-10 15:58:00,75.3,50.0,30.09,SSE,150,6.0,6.0,41,0.00,,,0.00,VWS V14.01,2013-10-10 19:58:00,
2013-10-10 16:03:00,74.8,48.2,30.08,SSW,195,1.0,6.0,39,0.00,,,0.00,VWS V14.01,2013-10-10 20:03:00,
2013-10-10 16:08:00,74.7,48.8,30.08,West,281,0.0,6.0,40,0.00,,,0.00,VWS V14.01,2013-10-10 20:08:00,
2013-10-10 16:13:00,75.3,49.3,30.08,SW,231,0.0,6.0,40,0.00,,,0.00,VWS V14.01,2013-10-10 20:13:00,
2013-10-10 16:18:00,75.3,49.3,30.08,South,188,0.0,6.0,40,0.00,,,0.00,VWS V14.01,2013-10-10 20:18:00,
2013-10-10 16:23:00,75.3,49.3,30.08,SSE,158,2.0,6.0,40,0.00,,,0.00,VWS V14.01,2013-10-10 20:23:00,
2013-10-10 16:28:00,75.1,48.5,30.08,SE,128,4.0,5.0,39,0.00,,,0.00,VWS V14.01,2013-10-10 20:28:00,
2013-10-10 16:31:00,74.9,48.3,30.08,SE,126,3.0,5.0,39,0.00,,,0.00,VWS V14.01,2013-10-10 20:31:00,
2013-10-10 16:36:00,74.8,50.2,30.07,SW,229,1.0,5.0,42,0.00,,,0.00,VWS V14.01,2013-10-10 20:36:00,
2013-10-10 16:41:00,75.3,49.3,30.07,SSE,161,3.0,5.0,40,0.00,,,0.00,VWS V14.01,2013-10-10 20:41:00,
2013-10-10 16:46:00,75.4,48.8,30.07,SSE,168,3.0,5.0,39,0.00,,,0.00,VWS V14.01,2013-10-10 20:46:00,
2013-10-10 16:51:00,75.2,48.6,30.07,SE,141,2.0,5.0,39,0.00,,,0.00,VWS V14.01,2013-10-10 20:51:00,
2013-10-10 16:56:00,75.1,47.8,30.07,SSE,155,2.0,4.0,38,0.00,,,0.00,VWS V14.01,2013-10-10 20:56:00,
2013-10-10 17:02:00,75.2,48.6,30.07,SE,139,1.0,1.0,39,0.00,,,0.00,VWS V14.01,2013-10-10 21:02:00,
2013-10-10 18:29:00,71.8,48.7,30.06,North,8,0.0,0.0,44,0.00,,,0.00,VWS V14.01,2013-10-10 22:29:00,
2013-10-10 18:35:00,71.1,48.7,30.06,North,8,0.0,0.0,45,0.00,,,0.00,VWS V14.01,2013-10-10 22:35:00,
2013-10-10 18:42:00,70.0,48.3,30.06,North,8,0.0,0.0,46,0.00,,,0.00,VWS V14.01,2013-10-10 22:42:00,
2013-10-10 18:47:00,69.3,48.2,30.06,North,8,0.0,0.0,47,0.00,,,0.00,VWS V14.01,2013-10-10 22:47:00,
2013-10-10 18:52:00,68.6,49.2,30.06,North,8,0.0,0.0,50,0.00,,,0.00,VWS V14.01,2013-10-10 22:52:00,
2013-10-10 18:57:00,67.7,50.0,30.06,North,8,0.0,0.0,53,0.00,,,0.00,VWS V14.01,2013-10-10 22:57:00,
2013-10-10 19:02:00,66.9,49.2,30.06,North,8,0.0,0.0,53,0.00,,,0.00,VWS V14.01,2013-10-10 23:02:00,
2013-10-10 19:07:00,66.1,50.0,30.06,North,8,0.0,0.0,56,0.00,,,0.00,VWS V14.01,2013-10-10 23:07:00,
2013-10-10 19:12:00,65.4,49.8,30.06,North,8,0.0,0.0,57,0.00,,,0.00,VWS V14.01,2013-10-10 23:12:00,
2013-10-10 19:17:00,64.7,50.1,30.05,North,8,0.0,0.0,59,0.00,,,0.00,VWS V14.01,2013-10-10 23:17:00,
2013-10-10 19:22:00,64.0,49.8,30.05,North,8,0.0,0.0,60,0.00,,,0.00,VWS V14.01,2013-10-10 23:22:00,
2013-10-10 19:28:00,63.5,50.3,30.06,North,8,0.0,0.0,62,0.00,,,0.00,VWS V14.01,2013-10-10 23:28:00,
2013-10-10 19:33:00,62.9,50.5,30.06,North,8,0.0,0.0,64,0.00,,,0.00,VWS V14.01,2013-10-10 23:33:00,
2013-10-10 19:38:00,62.2,49.9,30.06,North,8,0.0,0.0,64,0.00,,,0.00,VWS V14.01,2013-10-10 23:38:00,
2013-10-10 19:43:00,61.6,50.1,30.06,North,8,0.0,0.0,66,0.00,,,0.00,VWS V14.01,2013-10-10 23:43:00,
2013-10-10 19:48:00,61.3,50.3,30.06,North,8,0.0,0.0,67,0.00,,,0.00,VWS V14.01,2013-10-10 23:48:00,
2013-10-10 19:53:00,60.9,49.9,30.06,North,8,0.0,0.0,67,0.00,,,0.00,VWS V14.01,2013-10-10 23:53:00,
2013-10-10 19:58:00,60.9,50.7,30.06,North,8,0.0,0.0,69,0.00,,,0.00,VWS V14.01,2013-10-10 23:58:00,
2013-10-10 20:03:00,60.7,50.5,30.06,North,8,0.0,0.0,69,0.00,,,0.00,VWS V14.01,2013-10-11 00:03:00,
2013-10-10 20:08:00,60.3,50.1,30.06,North,8,0.0,0.0,69,0.00,,,0.00,VWS V14.01,2013-10-11 00:08:00,
2013-10-10 20:13:00,60.0,50.2,30.06,North,8,0.0,0.0,70,0.00,,,0.00,VWS V14.01,2013-10-11 00:13:00,
2013-10-10 20:18:00,59.7,50.3,30.06,North,8,0.0,0.0,71,0.00,,,0.00,VWS V14.01,2013-10-11 00:18:00,
2013-10-10 20:23:00,59.5,50.5,30.06,North,8,0.0,0.0,72,0.00,,,0.00,VWS V14.01,2013-10-11 00:23:00,
2013-10-10 20:28:00,59.2,49.8,30.06,North,8,0.0,0.0,71,0.00,,,0.00,VWS V14.01,2013-10-11 00:28:00,
2013-10-10 20:33:00,59.1,49.7,30.06,North,8,0.0,0.0,71,0.00,,,0.00,VWS V14.01,2013-10-11 00:33:00,
2013-10-10 20:38:00,58.8,49.4,30.06,North,8,0.0,0.0,71,0.00,,,0.00,VWS V14.01,2013-10-11 00:38:00,
2013-10-10 20:43:00,58.6,49.6,30.06,North,8,0.0,0.0,72,0.00,,,0.00,VWS V14.01,2013-10-11 00:43:00,
2013-10-10 20:48:00,58.3,49.7,30.06,North,7,0.0,0.0,73,0.00,,,0.00,VWS V14.01,2013-10-11 00:48:00,
2013-10-10 20:53:00,57.9,49.3,30.06,North,8,0.0,0.0,73,0.00,,,0.00,VWS V14.01,2013-10-11 00:53:00,
2013-10-10 20:57:00,57.5,49.3,30.06,North,8,0.0,0.0,74,0.00,,,0.00,VWS V14.01,2013-10-11 00:57:00,
2013-10-10 21:02:00,57.0,48.8,30.06,North,8,0.0,0.0,74,0.00,,,0.00,VWS V14.01,2013-10-11 01:02:00,
2013-10-10 21:07:00,56.5,48.7,30.06,North,8,0.0,0.0,75,0.00,,,0.00,VWS V14.01,2013-10-11 01:07:00,
2013-10-10 21:12:00,56.3,49.2,30.06,North,8,0.0,0.0,77,0.00,,,0.00,VWS V14.01,2013-10-11 01:12:00,
2013-10-10 21:17:00,56.4,49.3,30.06,North,8,0.0,0.0,77,0.00,,,0.00,VWS V14.01,2013-10-11 01:17:00,
2013-10-10 21:22:00,56.2,49.4,30.07,North,8,0.0,0.0,78,0.00,,,0.00,VWS V14.01,2013-10-11 01:22:00,
2013-10-10 21:27:00,56.0,49.9,30.07,North,8,0.0,0.0,80,0.00,,,0.00,VWS V14.01,2013-10-11 01:27:00,
2013-10-10 21:32:00,55.8,49.4,30.07,North,8,0.0,0.0,79,0.00,,,0.00,VWS V14.01,2013-10-11 01:32:00,
2013-10-10 21:37:00,55.7,49.6,30.07,North,7,0.0,0.0,80,0.00,,,0.00,VWS V14.01,2013-10-11 01:37:00,
2013-10-10 21:42:00,55.5,49.8,30.06,North,8,0.0,0.0,81,0.00,,,0.00,VWS V14.01,2013-10-11 01:42:00,
2013-10-10 21:47:00,55.6,49.9,30.06,North,8,0.0,0.0,81,0.00,,,0.00,VWS V14.01,2013-10-11 01:47:00,
2013-10-10 21:52:00,55.6,49.5,30.07,North,7,0.0,0.0,80,0.00,,,0.00,VWS V14.01,2013-10-11 01:52:00,
2013-10-10 21:57:00,55.4,49.0,30.07,North,8,0.0,0.0,79,0.00,,,0.00,VWS V14.01,2013-10-11 01:57:00,
2013-10-10 22:02:00,54.9,49.2,30.07,North,7,0.0,0.0,81,0.00,,,0.00,VWS V14.01,2013-10-11 02:02:00,
2013-10-10 22:07:00,54.5,48.8,30.07,North,8,0.0,0.0,81,0.00,,,0.00,VWS V14.01,2013-10-11 02:07:00,
2013-10-10 22:12:00,54.0,49.0,30.07,North,8,0.0,0.0,83,0.00,,,0.00,VWS V14.01,2013-10-11 02:12:00,
2013-10-10 22:17:00,53.7,49.0,30.07,North,8,0.0,0.0,84,0.00,,,0.00,VWS V14.01,2013-10-11 02:17:00,
2013-10-10 22:22:00,53.4,48.7,30.07,North,8,0.0,0.0,84,0.00,,,0.00,VWS V14.01,2013-10-11 02:22:00,
2013-10-10 22:29:00,53.1,49.0,30.07,North,8,0.0,0.0,86,0.00,,,0.00,weatherlink.com 1.10,2013-10-11 02:29:00,
2013-10-10 22:34:00,52.9,48.8,30.07,North,8,0.0,0.0,86,0.00,,,0.00,VWS V14.01,2013-10-11 02:34:00,
2013-10-10 22:39:00,52.6,48.5,30.07,North,8,0.0,0.0,86,0.00,,,0.00,VWS V14.01,2013-10-11 02:39:00,
2013-10-10 22:44:00,52.3,48.2,30.06,North,8,0.0,0.0,86,0.00,,,0.00,VWS V14.01,2013-10-11 02:44:00,
2013-10-10 22:49:00,51.9,48.2,30.06,North,8,0.0,0.0,87,0.00,,,0.00,VWS V14.01,2013-10-11 02:49:00,
2013-10-10 22:54:00,51.8,48.4,30.06,North,8,0.0,0.0,88,0.00,,,0.00,VWS V14.01,2013-10-11 02:54:00,
2013-10-10 22:59:00,51.8,48.7,30.06,North,8,0.0,0.0,89,0.00,,,0.00,VWS V14.01,2013-10-11 02:59:00,
2013-10-10 23:04:00,51.8,48.7,30.06,North,8,0.0,0.0,89,0.00,,,0.00,VWS V14.01,2013-10-11 03:04:00,
2013-10-10 23:09:00,51.6,48.5,30.06,North,7,0.0,0.0,89,0.00,,,0.00,VWS V14.01,2013-10-11 03:09:00,
2013-10-10 23:14:00,51.5,48.4,30.06,North,7,0.0,0.0,89,0.00,,,0.00,VWS V14.01,2013-10-11 03:14:00,
2013-10-10 23:19:00,51.2,48.4,30.06,North,8,0.0,0.0,90,0.00,,,0.00,VWS V14.01,2013-10-11 03:19:00,
2013-10-10 23:24:00,51.2,48.4,30.07,North,8,0.0,0.0,90,0.00,,,0.00,VWS V14.01,2013-10-11 03:24:00,
2013-10-10 23:29:00,51.4,48.9,30.06,North,8,0.0,0.0,91,0.00,,,0.00,VWS V14.01,2013-10-11 03:29:00,
2013-10-10 23:34:00,51.3,48.5,30.06,North,8,0.0,0.0,90,0.00,,,0.00,VWS V14.01,2013-10-11 03:34:00,
2013-10-10 23:39:00,51.4,48.6,30.06,North,8,0.0,0.0,90,0.00,,,0.00,VWS V14.01,2013-10-11 03:39:00,
2013-10-10 23:44:00,51.3,48.5,30.06,North,8,0.0,0.0,90,0.00,,,0.00,VWS V14.01,2013-10-11 03:44:00,
2013-10-10 23:49:00,51.2,48.7,30.06,North,8,0.0,0.0,91,0.00,,,0.00,VWS V14.01,2013-10-11 03:49:00,
2013-10-10 23:54:00,51.0,48.2,30.06,North,8,0.0,0.0,90,0.00,,,0.00,VWS V14.01,2013-10-11 03:54:00,
2013-10-10 23:59:00,50.8,48.0,30.06,North,8,0.0,0.0,90,0.00,,,0.00,VWS V14.01,2013-10-11 03:59:00,